createdAt,value
2023-06-25T00:00:49.662Z,24.60
2023-06-25T00:03:16.924Z,24.60
2023-06-25T00:05:44.328Z,24.60
2023-06-25T00:08:11.735Z,24.60
2023-06-25T00:10:39.212Z,24.70
2023-06-25T00:13:09.839Z,24.60
2023-06-25T00:15:37.118Z,24.70
2023-06-25T00:18:05.482Z,24.70
2023-06-25T00:20:34.469Z,24.60
2023-06-25T00:23:06.955Z,24.60
2023-06-25T00:25:35.977Z,24.60
2023-06-25T00:28:03.930Z,24.60
2023-06-25T00:30:31.358Z,24.50
2023-06-25T00:32:58.822Z,24.50
2023-06-25T00:35:40.266Z,24.50
2023-06-25T00:38:07.630Z,24.50
2023-06-25T00:40:35.269Z,24.50
2023-06-25T00:43:06.039Z,24.50
2023-06-25T00:45:34.568Z,24.40
2023-06-25T00:48:03.406Z,24.40
2023-06-25T00:50:30.943Z,24.40
2023-06-25T00:52:58.541Z,24.40
2023-06-25T00:55:26.728Z,24.30
2023-06-25T00:57:57.314Z,24.30
2023-06-25T01:00:26.443Z,24.30
2023-06-25T01:03:28.472Z,24.30
2023-06-25T01:06:07.731Z,24.20
2023-06-25T01:08:40.370Z,24.20
2023-06-25T01:11:12.475Z,24.20
2023-06-25T01:13:40.245Z,24.20
2023-06-25T01:16:08.173Z,24.20
2023-06-25T01:18:45.222Z,24.10
2023-06-25T01:21:18.206Z,24.10
2023-06-25T01:23:45.866Z,24.10
2023-06-25T01:26:13.185Z,24.10
2023-06-25T01:28:42.489Z,24.10
2023-06-25T01:31:09.796Z,24.10
2023-06-25T01:33:38.205Z,24.10
2023-06-25T01:36:05.875Z,24.10
2023-06-25T01:38:33.366Z,24.10
2023-06-25T01:41:00.662Z,24.10
2023-06-25T01:43:28.070Z,24.10
2023-06-25T01:45:55.393Z,24.00
2023-06-25T01:48:22.743Z,24.10
2023-06-25T01:50:50.011Z,24.10
2023-06-25T01:53:18.717Z,24.00
2023-06-25T01:55:45.980Z,24.00
2023-06-25T01:58:13.377Z,24.00
2023-06-25T02:00:42.004Z,24.00
2023-06-25T02:03:09.359Z,24.00
2023-06-25T02:05:37.651Z,24.00
2023-06-25T02:08:05.501Z,24.00
2023-06-25T02:10:34.065Z,24.00
2023-06-25T02:13:01.397Z,23.90
2023-06-25T02:15:28.911Z,23.90
2023-06-25T02:17:56.182Z,23.90
2023-06-25T02:20:23.484Z,23.90
2023-06-25T02:22:51.588Z,23.90
2023-06-25T02:25:19.088Z,23.90
2023-06-25T02:27:46.481Z,23.80
2023-06-25T02:30:14.464Z,23.80
2023-06-25T02:32:41.900Z,23.80
2023-06-25T02:35:09.859Z,23.80
2023-06-25T02:37:37.314Z,23.80
2023-06-25T02:40:06.332Z,23.80
2023-06-25T02:42:33.914Z,23.80
2023-06-25T02:45:01.287Z,23.80
2023-06-25T02:47:29.434Z,23.80
2023-06-25T02:49:56.754Z,23.80
2023-06-25T02:52:25.179Z,23.80
2023-06-25T02:54:52.605Z,23.80
2023-06-25T02:57:20.051Z,23.70
2023-06-25T02:59:47.488Z,23.70
2023-06-25T03:02:14.992Z,23.70
2023-06-25T03:04:42.313Z,23.70
2023-06-25T03:07:10.019Z,23.70
2023-06-25T03:09:37.688Z,23.70
2023-06-25T03:12:05.931Z,23.60
2023-06-25T03:14:35.627Z,23.60
2023-06-25T03:17:05.300Z,23.50
2023-06-25T03:19:32.961Z,23.50
2023-06-25T03:22:00.819Z,23.40
2023-06-25T03:24:30.129Z,23.40
2023-06-25T03:26:57.539Z,23.40
2023-06-25T03:29:24.861Z,23.40
2023-06-25T03:31:52.263Z,23.40
2023-06-25T03:34:23.479Z,23.40
2023-06-25T03:36:51.920Z,23.30
2023-06-25T03:39:19.740Z,23.30
2023-06-25T03:41:47.807Z,23.30
2023-06-25T03:44:15.136Z,23.30
2023-06-25T03:46:42.487Z,23.30
2023-06-25T03:49:09.972Z,23.30
2023-06-25T03:51:38.530Z,23.30
2023-06-25T03:54:07.822Z,23.30
2023-06-25T03:56:37.241Z,23.30
2023-06-25T03:59:04.585Z,23.30
2023-06-25T04:01:32.915Z,23.30
2023-06-25T04:04:00.456Z,23.30
2023-06-25T04:06:27.806Z,23.20
2023-06-25T04:08:55.187Z,23.20
2023-06-25T04:11:22.923Z,23.10
2023-06-25T04:13:50.750Z,23.10
2023-06-25T04:16:18.072Z,23.00
2023-06-25T04:18:46.295Z,23.00
2023-06-25T04:21:13.870Z,23.00
2023-06-25T04:23:41.922Z,23.00
2023-06-25T04:26:10.228Z,23.10
2023-06-25T04:28:37.855Z,23.10
2023-06-25T04:31:05.416Z,23.10
2023-06-25T04:33:34.680Z,23.10
2023-06-25T04:36:02.441Z,23.10
2023-06-25T04:38:30.672Z,23.10
2023-06-25T04:40:58.294Z,23.20
2023-06-25T04:43:25.860Z,23.20
2023-06-25T04:45:55.152Z,23.30
2023-06-25T04:48:22.515Z,23.30
2023-06-25T04:50:50.088Z,23.40
2023-06-25T04:53:17.951Z,23.40
2023-06-25T04:55:45.722Z,23.50
2023-06-25T04:58:13.058Z,23.50
2023-06-25T05:00:40.510Z,23.60
2023-06-25T05:03:08.092Z,23.70
2023-06-25T05:05:35.802Z,23.80
2023-06-25T05:08:03.372Z,23.90
2023-06-25T05:10:30.775Z,24.00
2023-06-25T05:12:58.253Z,24.10
2023-06-25T05:15:26.192Z,24.10
2023-06-25T05:17:53.532Z,24.20
2023-06-25T05:20:21.248Z,24.30
2023-06-25T05:22:48.627Z,24.30
2023-06-25T05:25:16.108Z,24.40
2023-06-25T05:27:43.536Z,24.40
2023-06-25T05:30:11.196Z,24.50
2023-06-25T05:32:43.232Z,24.50
2023-06-25T05:35:10.551Z,24.50
2023-06-25T05:37:37.906Z,24.50
2023-06-25T05:40:06.033Z,24.50
2023-06-25T05:42:33.408Z,24.50
2023-06-25T05:45:00.646Z,24.40
2023-06-25T05:47:28.020Z,24.30
2023-06-25T05:49:55.689Z,24.30
2023-06-25T05:52:23.154Z,24.30
2023-06-25T05:54:50.683Z,24.40
2023-06-25T05:57:19.672Z,24.40
2023-06-25T05:59:47.036Z,24.40
2023-06-25T06:02:14.404Z,24.40
2023-06-25T06:04:41.755Z,24.60
2023-06-25T06:07:09.198Z,24.80
2023-06-25T06:09:37.060Z,24.90
2023-06-25T06:12:04.811Z,25.00
2023-06-25T06:14:34.805Z,25.20
2023-06-25T06:17:02.402Z,25.30
2023-06-25T06:19:29.972Z,25.50
2023-06-25T06:21:57.409Z,25.70
2023-06-25T06:24:24.871Z,25.80
2023-06-25T06:26:52.559Z,25.90
2023-06-25T06:29:20.663Z,25.90
2023-06-25T06:31:47.979Z,26.00
2023-06-25T06:34:15.426Z,26.10
2023-06-25T06:36:42.758Z,26.30
2023-06-25T06:39:10.261Z,26.40
2023-06-25T06:41:37.644Z,26.40
2023-06-25T06:44:13.635Z,26.50
2023-06-25T06:46:41.538Z,26.70
2023-06-25T06:49:09.102Z,26.80
2023-06-25T06:51:37.748Z,27.00
2023-06-25T06:54:05.911Z,27.10
2023-06-25T06:56:34.309Z,27.20
2023-06-25T06:59:02.323Z,27.40
2023-06-25T07:01:29.904Z,27.60
2023-06-25T07:03:57.984Z,27.70
2023-06-25T07:06:25.403Z,27.70
2023-06-25T07:08:52.733Z,27.80
2023-06-25T07:11:20.129Z,27.90
2023-06-25T07:13:48.491Z,28.10
2023-06-25T07:16:16.342Z,28.20
2023-06-25T07:18:44.939Z,28.40
2023-06-25T07:21:12.479Z,28.50
2023-06-25T07:23:39.852Z,28.60
2023-06-25T07:26:08.488Z,28.70
2023-06-25T07:28:35.778Z,28.70
2023-06-25T07:31:03.208Z,28.80
2023-06-25T07:33:30.507Z,28.80
2023-06-25T07:35:57.849Z,28.60
2023-06-25T07:38:25.171Z,28.60
2023-06-25T07:40:52.640Z,28.50
2023-06-25T07:43:19.903Z,28.40
2023-06-25T07:45:47.315Z,28.50
2023-06-25T07:48:14.680Z,28.70
2023-06-25T07:50:42.033Z,28.70
2023-06-25T07:53:09.345Z,28.70
2023-06-25T07:55:56.225Z,28.90
2023-06-25T07:58:29.087Z,28.90
2023-06-25T08:00:56.436Z,29.00
2023-06-25T08:03:24.132Z,29.00
2023-06-25T08:05:51.996Z,29.20
2023-06-25T08:08:20.483Z,29.30
2023-06-25T08:10:52.545Z,29.50
2023-06-25T08:13:21.813Z,29.60
2023-06-25T08:15:49.335Z,29.50
2023-06-25T08:18:16.751Z,29.60
2023-06-25T08:20:44.803Z,29.50
2023-06-25T08:23:12.155Z,29.60
2023-06-25T08:25:40.294Z,29.60
2023-06-25T08:28:08.564Z,29.60
2023-06-25T08:30:35.930Z,29.50
2023-06-25T08:33:03.896Z,29.50
2023-06-25T08:35:31.170Z,29.40
2023-06-25T08:37:58.642Z,29.30
2023-06-25T08:40:28.970Z,29.40
2023-06-25T08:42:56.417Z,29.30
2023-06-25T08:45:23.775Z,29.30
2023-06-25T08:47:56.762Z,29.40
2023-06-25T08:50:24.943Z,29.50
2023-06-25T08:52:52.673Z,29.60
2023-06-25T08:55:23.483Z,29.80
2023-06-25T08:57:50.950Z,29.90
2023-06-25T09:00:18.570Z,29.90
2023-06-25T09:02:46.109Z,29.90
2023-06-25T09:05:15.107Z,30.10
2023-06-25T09:07:46.873Z,30.10
2023-06-25T09:10:14.713Z,30.00
2023-06-25T09:12:46.972Z,30.00
2023-06-25T09:15:14.511Z,30.00
2023-06-25T09:17:42.591Z,30.00
2023-06-25T09:20:10.304Z,29.80
2023-06-25T09:22:58.325Z,29.80
2023-06-25T09:25:30.697Z,29.90
2023-06-25T09:28:01.115Z,29.60
2023-06-25T09:30:28.589Z,29.60
2023-06-25T09:32:57.262Z,29.90
2023-06-25T09:35:31.040Z,30.10
2023-06-25T09:37:58.459Z,30.10
2023-06-25T09:40:25.695Z,30.00
2023-06-25T09:42:57.986Z,29.80
2023-06-25T09:45:27.518Z,30.00
2023-06-25T09:47:57.975Z,29.70
2023-06-25T09:50:39.589Z,30.00
2023-06-25T09:53:11.979Z,29.90
2023-06-25T09:55:39.918Z,30.00
2023-06-25T09:58:18.622Z,30.10
2023-06-25T10:00:46.515Z,30.00
2023-06-25T10:03:16.722Z,30.20
2023-06-25T10:05:45.098Z,30.30
2023-06-25T10:08:13.942Z,30.50
2023-06-25T10:10:41.659Z,30.80
2023-06-25T10:13:09.488Z,31.20
2023-06-25T10:15:38.105Z,31.20
2023-06-25T10:18:08.506Z,31.50
2023-06-25T10:20:38.390Z,31.50
2023-06-25T10:23:05.862Z,31.40
2023-06-25T10:25:33.680Z,31.30
2023-06-25T10:28:12.796Z,31.20
2023-06-25T10:30:50.791Z,31.10
2023-06-25T10:33:19.217Z,30.90
2023-06-25T10:35:59.618Z,30.90
2023-06-25T10:38:27.104Z,30.90
2023-06-25T10:40:56.119Z,30.90
2023-06-25T10:43:23.597Z,30.50
2023-06-25T10:45:57.300Z,30.40
2023-06-25T10:48:26.115Z,30.20
2023-06-25T10:50:54.648Z,30.20
2023-06-25T10:53:23.634Z,30.10
2023-06-25T10:55:53.357Z,30.10
2023-06-25T10:58:22.664Z,30.40
2023-06-25T11:00:57.436Z,30.70
2023-06-25T11:03:27.914Z,31.00
2023-06-25T11:06:02.080Z,31.20
2023-06-25T11:08:29.600Z,30.70
2023-06-25T11:10:57.489Z,30.50
2023-06-25T11:13:24.780Z,30.80
2023-06-25T11:15:52.884Z,31.30
2023-06-25T11:18:22.885Z,31.50
2023-06-25T11:20:50.907Z,31.80
2023-06-25T11:23:18.329Z,31.80
2023-06-25T11:25:45.951Z,30.40
2023-06-25T11:28:16.665Z,30.30
2023-06-25T11:30:47.180Z,30.80
2023-06-25T11:33:19.464Z,31.10
2023-06-25T11:35:52.062Z,31.70
2023-06-25T11:38:29.291Z,32.40
2023-06-25T11:40:58.674Z,32.60
2023-06-25T11:43:27.191Z,33.30
2023-06-25T11:45:54.889Z,33.00
2023-06-25T11:48:23.012Z,33.10
2023-06-25T11:50:51.245Z,33.10
2023-06-25T11:53:18.687Z,33.60
2023-06-25T11:55:47.461Z,33.90
2023-06-25T11:58:14.861Z,34.20
2023-06-25T12:00:44.995Z,34.30
2023-06-25T12:03:13.037Z,33.70
2023-06-25T12:05:48.679Z,34.00
2023-06-25T12:08:19.255Z,34.20
2023-06-25T12:10:46.882Z,33.70
2023-06-25T12:13:14.174Z,33.40
2023-06-25T12:15:41.666Z,33.50
2023-06-25T12:18:08.979Z,33.50
2023-06-25T12:20:36.422Z,33.50
2023-06-25T12:23:03.781Z,33.50
2023-06-25T12:25:31.162Z,33.30
2023-06-25T12:27:59.519Z,33.40
2023-06-25T12:30:26.986Z,33.00
2023-06-25T12:32:56.771Z,33.30
2023-06-25T12:35:25.205Z,33.50
2023-06-25T12:37:53.665Z,34.00
2023-06-25T12:40:21.289Z,34.30
2023-06-25T12:42:49.906Z,34.40
2023-06-25T12:45:18.685Z,34.20
2023-06-25T12:47:47.418Z,33.80
2023-06-25T12:50:15.011Z,33.80
2023-06-25T12:52:42.316Z,34.10
2023-06-25T12:55:10.122Z,34.00
2023-06-25T12:57:37.881Z,33.80
2023-06-25T13:00:12.519Z,33.70
2023-06-25T13:02:45.148Z,33.60
2023-06-25T13:05:12.522Z,34.00
2023-06-25T13:07:40.285Z,34.10
2023-06-25T13:10:08.073Z,34.60
2023-06-25T13:12:35.608Z,34.60
2023-06-25T13:15:03.129Z,34.50
2023-06-25T13:17:30.661Z,34.50
2023-06-25T13:19:57.915Z,34.00
2023-06-25T13:22:25.397Z,33.80
2023-06-25T13:24:52.780Z,33.80
2023-06-25T13:27:20.145Z,34.20
2023-06-25T13:29:47.554Z,33.90
2023-06-25T13:32:14.854Z,33.70
2023-06-25T13:34:42.424Z,33.70
2023-06-25T13:37:09.729Z,33.40
2023-06-25T13:39:39.984Z,33.50
2023-06-25T13:42:07.851Z,33.20
2023-06-25T13:44:35.294Z,33.20
2023-06-25T13:47:02.834Z,33.10
2023-06-25T13:49:30.281Z,33.10
2023-06-25T13:51:57.799Z,33.40
2023-06-25T13:54:25.113Z,33.70
2023-06-25T13:56:56.070Z,33.80
2023-06-25T13:59:24.605Z,34.30
2023-06-25T14:01:52.062Z,34.30
2023-06-25T14:04:19.749Z,34.70
2023-06-25T14:06:47.197Z,35.10
2023-06-25T14:09:14.846Z,35.00
2023-06-25T14:11:42.170Z,34.40
2023-06-25T14:14:09.582Z,34.80
2023-06-25T14:16:36.824Z,34.50
2023-06-25T14:19:04.273Z,34.70
2023-06-25T14:21:32.272Z,34.60
2023-06-25T14:23:59.542Z,35.20
2023-06-25T14:26:26.825Z,35.30
2023-06-25T14:29:10.386Z,35.30
2023-06-25T14:31:38.385Z,34.80
2023-06-25T14:34:06.008Z,35.50
2023-06-25T14:36:34.863Z,35.10
2023-06-25T14:39:02.210Z,33.80
2023-06-25T14:41:30.830Z,33.00
2023-06-25T14:43:58.181Z,32.20
2023-06-25T14:46:25.741Z,31.70
2023-06-25T14:48:53.244Z,31.50
2023-06-25T14:51:21.907Z,31.50
2023-06-25T14:53:49.376Z,31.40
2023-06-25T14:56:17.028Z,30.90
2023-06-25T14:58:44.387Z,30.60
2023-06-25T15:01:11.835Z,30.70
2023-06-25T15:03:39.496Z,30.50
2023-06-25T15:06:11.427Z,30.00
2023-06-25T15:08:41.879Z,29.70
2023-06-25T15:11:09.152Z,29.50
2023-06-25T15:13:36.884Z,29.40
2023-06-25T15:16:04.361Z,29.20
2023-06-25T15:18:31.984Z,29.20
2023-06-25T15:20:59.332Z,29.00
2023-06-25T15:23:27.144Z,29.00
2023-06-25T15:25:56.408Z,29.00
2023-06-25T15:28:25.528Z,29.10
2023-06-25T15:30:53.973Z,29.20
2023-06-25T15:33:21.645Z,29.00
2023-06-25T15:35:48.874Z,28.90
2023-06-25T15:38:16.406Z,29.00
2023-06-25T15:40:43.712Z,29.10
2023-06-25T15:43:11.050Z,28.90
2023-06-25T15:45:41.487Z,28.70
2023-06-25T15:48:09.534Z,28.80
2023-06-25T15:50:38.438Z,28.80
2023-06-25T15:53:06.555Z,28.80
2023-06-25T15:55:34.141Z,28.70
2023-06-25T15:58:03.468Z,28.50
2023-06-25T16:00:31.205Z,28.30
2023-06-25T16:02:58.672Z,28.30
2023-06-25T16:05:26.184Z,28.30
2023-06-25T16:07:53.460Z,28.20
2023-06-25T16:10:20.815Z,28.20
2023-06-25T16:12:48.196Z,28.10
2023-06-25T16:15:15.726Z,28.20
2023-06-25T16:17:43.081Z,28.10
2023-06-25T16:20:12.620Z,28.20
2023-06-25T16:22:41.699Z,28.20
2023-06-25T16:25:09.487Z,28.20
2023-06-25T16:27:38.467Z,28.10
2023-06-25T16:30:06.776Z,28.00
2023-06-25T16:32:35.251Z,28.00
2023-06-25T16:35:03.239Z,28.00
2023-06-25T16:37:30.706Z,28.00
2023-06-25T16:39:58.091Z,27.80
2023-06-25T16:42:25.545Z,27.80
2023-06-25T16:44:53.061Z,27.80
2023-06-25T16:47:20.682Z,27.80
2023-06-25T16:49:48.291Z,27.70
2023-06-25T16:52:15.777Z,27.60
2023-06-25T16:54:43.260Z,27.60
2023-06-25T16:57:10.745Z,27.80
2023-06-25T16:59:38.150Z,27.80
2023-06-25T17:02:06.597Z,27.70
2023-06-25T17:04:39.048Z,27.60
2023-06-25T17:07:07.947Z,27.60
2023-06-25T17:09:39.524Z,27.60
2023-06-25T17:12:06.915Z,27.60
2023-06-25T17:14:34.231Z,27.50
2023-06-25T17:17:01.580Z,27.50
2023-06-25T17:19:28.863Z,27.40
2023-06-25T17:21:56.595Z,27.50
2023-06-25T17:24:24.095Z,27.30
2023-06-25T17:26:53.014Z,27.20
2023-06-25T17:29:20.935Z,27.20
2023-06-25T17:31:48.345Z,27.20
2023-06-25T17:34:15.803Z,27.30
2023-06-25T17:36:43.120Z,27.30
2023-06-25T17:39:11.717Z,27.10
2023-06-25T17:41:39.069Z,27.10
2023-06-25T17:44:06.457Z,27.10
2023-06-25T17:46:35.782Z,27.10
2023-06-25T17:49:03.460Z,27.10
2023-06-25T17:51:31.876Z,27.10
2023-06-25T17:53:59.233Z,27.00
2023-06-25T17:56:28.323Z,27.00
2023-06-25T17:58:55.745Z,26.90
2023-06-25T18:01:23.089Z,26.80
2023-06-25T18:03:53.598Z,26.80
2023-06-25T18:06:20.984Z,26.80
2023-06-25T18:08:48.410Z,26.80
2023-06-25T18:11:26.214Z,26.70
2023-06-25T18:13:55.538Z,26.60
2023-06-25T18:16:22.907Z,26.60
2023-06-25T18:18:51.053Z,26.50
2023-06-25T18:21:18.506Z,26.40
2023-06-25T18:23:45.965Z,26.40
2023-06-25T18:26:16.658Z,26.30
2023-06-25T18:28:44.645Z,26.40
2023-06-25T18:31:12.943Z,26.30
2023-06-25T18:33:40.958Z,26.30
2023-06-25T18:36:08.497Z,26.20
2023-06-25T18:38:35.968Z,26.10
2023-06-25T18:41:04.668Z,26.00
2023-06-25T18:43:32.104Z,26.00
2023-06-25T18:45:59.621Z,26.00
2023-06-25T18:48:26.989Z,26.00
2023-06-25T18:50:54.380Z,26.00
2023-06-25T18:53:21.894Z,25.90
2023-06-25T18:55:50.425Z,25.90
2023-06-25T18:58:17.802Z,25.90
2023-06-25T19:00:45.583Z,25.90
2023-06-25T19:03:14.440Z,26.00
2023-06-25T19:05:42.258Z,26.00
2023-06-25T19:08:09.702Z,26.00
2023-06-25T19:10:38.338Z,26.00
2023-06-25T19:13:08.937Z,26.00
2023-06-25T19:15:36.371Z,26.00
2023-06-25T19:18:04.005Z,26.00
2023-06-25T19:20:31.598Z,26.00
2023-06-25T19:23:27.785Z,26.00
2023-06-25T19:25:49.525Z,26.00
2023-06-25T19:28:16.940Z,26.00
2023-06-25T19:30:47.274Z,26.00
2023-06-25T19:33:15.039Z,26.00
2023-06-25T19:35:42.420Z,26.00
2023-06-25T19:38:09.774Z,26.00
2023-06-25T19:40:37.616Z,26.00
2023-06-25T19:43:07.315Z,26.00
2023-06-25T19:45:34.680Z,26.00
2023-06-25T19:48:02.064Z,26.00
2023-06-25T19:50:29.533Z,26.00
2023-06-25T19:52:56.839Z,26.00
2023-06-25T19:55:25.385Z,26.00
2023-06-25T19:57:52.730Z,26.00
2023-06-25T20:00:20.452Z,26.00
2023-06-25T20:02:47.860Z,26.00
2023-06-25T20:05:16.949Z,26.00
2023-06-25T20:07:49.599Z,26.00
2023-06-25T20:10:18.008Z,25.90
2023-06-25T20:12:48.199Z,25.90
2023-06-25T20:15:18.897Z,25.90
2023-06-25T20:17:46.849Z,25.90
2023-06-25T20:20:14.679Z,25.90
2023-06-25T20:22:42.171Z,25.90
2023-06-25T20:25:12.880Z,25.90
2023-06-25T20:27:40.347Z,25.90
2023-06-25T20:30:08.916Z,25.90
2023-06-25T20:32:36.436Z,25.90
2023-06-25T20:35:03.923Z,25.80
2023-06-25T20:37:31.414Z,25.80
2023-06-25T20:39:59.931Z,25.80
2023-06-25T20:42:27.399Z,25.80
2023-06-25T20:44:54.822Z,25.80
2023-06-25T20:47:24.552Z,25.80
2023-06-25T20:49:52.024Z,25.80
2023-06-25T20:52:19.491Z,25.80
2023-06-25T20:54:49.905Z,25.80
2023-06-25T20:57:17.449Z,25.80
2023-06-25T20:59:44.812Z,25.80
2023-06-25T21:02:15.352Z,25.70
2023-06-25T21:04:42.752Z,25.70
2023-06-25T21:07:12.860Z,25.70
2023-06-25T21:09:40.640Z,25.70
2023-06-25T21:12:08.093Z,25.60
2023-06-25T21:14:35.473Z,25.60
2023-06-25T21:17:02.815Z,25.60
2023-06-25T21:19:30.116Z,25.60
2023-06-25T21:21:57.539Z,25.60
2023-06-25T21:24:26.194Z,25.60
2023-06-25T21:26:53.562Z,25.60
2023-06-25T21:29:21.483Z,25.70
2023-06-25T21:31:48.943Z,25.60
2023-06-25T21:34:16.291Z,25.60
2023-06-25T21:36:43.688Z,25.60
2023-06-25T21:39:11.088Z,25.60
2023-06-25T21:41:38.511Z,25.60
2023-06-25T21:44:06.013Z,25.50
2023-06-25T21:46:33.477Z,25.50
2023-06-25T21:49:00.735Z,25.50
2023-06-25T21:51:28.081Z,25.50
2023-06-25T21:53:55.428Z,25.40
2023-06-25T21:56:22.887Z,25.50
2023-06-25T21:58:50.262Z,25.40
2023-06-25T22:01:17.699Z,25.40
2023-06-25T22:03:45.046Z,25.40
2023-06-25T22:06:14.205Z,25.40
2023-06-25T22:08:41.566Z,25.40
2023-06-25T22:11:08.888Z,25.40
2023-06-25T22:13:36.589Z,25.40
2023-06-25T22:16:04.054Z,25.40
2023-06-25T22:18:31.459Z,25.30
2023-06-25T22:20:59.085Z,25.30
2023-06-25T22:23:26.457Z,25.30
2023-06-25T22:25:53.798Z,25.30
2023-06-25T22:28:21.151Z,25.30
2023-06-25T22:30:50.810Z,25.30
2023-06-25T22:33:18.162Z,25.30
2023-06-25T22:35:46.676Z,25.30
2023-06-25T22:38:14.477Z,25.30
2023-06-25T22:40:43.448Z,25.30
2023-06-25T22:43:11.160Z,25.30
2023-06-25T22:45:38.500Z,25.30
2023-06-25T22:48:06.255Z,25.30
2023-06-25T22:50:33.965Z,25.20
2023-06-25T22:53:05.502Z,25.30
2023-06-25T22:55:35.425Z,25.20
2023-06-25T22:58:03.270Z,25.30
2023-06-25T23:00:31.029Z,25.20
2023-06-25T23:02:58.663Z,25.20
2023-06-25T23:05:29.174Z,25.30
2023-06-25T23:07:59.278Z,25.20
2023-06-25T23:10:26.813Z,25.20
2023-06-25T23:12:58.014Z,25.20
2023-06-25T23:15:25.649Z,25.20
2023-06-25T23:17:55.989Z,25.20
2023-06-25T23:20:24.959Z,25.20
2023-06-25T23:22:53.999Z,25.10
2023-06-25T23:25:29.340Z,25.10
2023-06-25T23:27:58.941Z,25.10
2023-06-25T23:30:27.447Z,25.10
2023-06-25T23:32:55.176Z,25.10
2023-06-25T23:35:22.544Z,25.10
2023-06-25T23:37:50.749Z,25.10
2023-06-25T23:40:18.086Z,25.10
2023-06-25T23:42:45.450Z,25.10
2023-06-25T23:45:12.820Z,25.00
2023-06-25T23:47:40.192Z,25.00
2023-06-25T23:50:07.922Z,25.00
2023-06-25T23:52:35.306Z,25.00
2023-06-25T23:55:02.644Z,25.00
2023-06-25T23:57:31.754Z,24.90
2023-06-25T23:59:59.015Z,24.90
